createdAt,value
2023-01-03T00:00:10.580Z,967.4900
2023-01-03T00:00:21.678Z,967.4900
2023-01-03T00:00:32.758Z,967.4900
2023-01-03T00:00:43.985Z,967.4900
2023-01-03T00:00:55.197Z,967.4900
2023-01-03T00:01:06.346Z,967.4900
2023-01-03T00:01:17.421Z,967.4900
2023-01-03T00:01:28.486Z,967.4900
2023-01-03T00:01:39.625Z,967.4500
2023-01-03T00:01:50.886Z,967.4500
2023-01-03T00:02:02.046Z,967.4500
2023-01-03T00:02:13.237Z,967.4300
2023-01-03T00:02:24.645Z,967.4700
2023-01-03T00:02:36.077Z,967.4700
2023-01-03T00:02:47.166Z,967.4500
2023-01-03T00:02:58.200Z,967.4700
2023-01-03T00:03:09.261Z,967.4100
2023-01-03T00:03:20.327Z,967.4100
2023-01-03T00:03:31.395Z,967.4100
2023-01-03T00:03:42.485Z,967.4300
2023-01-03T00:03:53.614Z,967.4300
2023-01-03T00:04:04.855Z,967.4100
2023-01-03T00:04:16.212Z,967.4100
2023-01-03T00:04:27.321Z,967.4100
2023-01-03T00:04:38.571Z,967.4100
2023-01-03T00:04:50.253Z,967.3900
2023-01-03T00:05:01.638Z,967.3900
2023-01-03T00:05:12.725Z,967.4300
2023-01-03T00:05:23.778Z,967.4300
2023-01-03T00:05:34.853Z,967.4100
2023-01-03T00:05:46.010Z,967.4300
2023-01-03T00:05:57.085Z,967.4300
2023-01-03T00:06:08.153Z,967.4300
2023-01-03T00:06:19.290Z,967.4300
2023-01-03T00:06:30.337Z,967.4300
2023-01-03T00:06:41.435Z,967.4300
2023-01-03T00:06:52.566Z,967.4300
2023-01-03T00:07:03.612Z,967.4500
2023-01-03T00:07:14.644Z,967.4300
2023-01-03T00:07:25.875Z,967.4300
2023-01-03T00:07:36.914Z,967.4300
2023-01-03T00:07:47.994Z,967.4500
2023-01-03T00:07:59.128Z,967.4500
2023-01-03T00:08:10.196Z,967.4700
2023-01-03T00:08:21.279Z,967.4500
2023-01-03T00:08:32.416Z,967.4500
2023-01-03T00:08:43.473Z,967.4700
2023-01-03T00:08:54.541Z,967.4500
2023-01-03T00:09:05.695Z,967.4900
2023-01-03T00:09:16.768Z,967.4900
2023-01-03T00:09:27.841Z,967.4500
2023-01-03T00:09:38.883Z,967.4500
2023-01-03T00:09:49.940Z,967.4700
2023-01-03T00:10:01.042Z,967.4700
2023-01-03T00:10:12.240Z,967.4700
2023-01-03T00:10:23.443Z,967.4700
2023-01-03T00:10:34.544Z,967.4900
2023-01-03T00:10:45.599Z,967.4900
2023-01-03T00:10:56.634Z,967.4900
2023-01-03T00:11:07.721Z,967.4900
2023-01-03T00:11:18.804Z,967.5100
2023-01-03T00:11:29.850Z,967.4900
2023-01-03T00:11:40.909Z,967.4700
2023-01-03T00:11:52.117Z,967.4900
2023-01-03T00:12:03.197Z,967.4900
2023-01-03T00:12:14.254Z,967.4700
2023-01-03T00:12:30.398Z,967.4900
2023-01-03T00:12:42.328Z,967.4900
2023-01-03T00:12:53.529Z,967.4900
2023-01-03T00:13:04.572Z,967.4900
2023-01-03T00:13:15.649Z,967.4700
2023-01-03T00:13:26.817Z,967.4900
2023-01-03T00:13:37.884Z,967.4900
2023-01-03T00:13:48.945Z,967.4700
2023-01-03T00:14:00.125Z,967.4700
2023-01-03T00:14:11.187Z,967.4900
2023-01-03T00:14:22.240Z,967.4900
2023-01-03T00:14:33.369Z,967.4900
2023-01-03T00:14:44.413Z,967.4900
2023-01-03T00:14:55.504Z,967.4900
2023-01-03T00:15:06.674Z,967.4900
2023-01-03T00:15:17.740Z,967.4900
2023-01-03T00:15:28.823Z,967.4900
2023-01-03T00:15:39.924Z,967.4900
2023-01-03T00:15:51.120Z,967.4900
2023-01-03T00:16:02.328Z,967.4900
2023-01-03T00:16:13.523Z,967.4700
2023-01-03T00:16:24.646Z,967.4700
2023-01-03T00:16:35.753Z,967.4700
2023-01-03T00:16:46.867Z,967.4700
2023-01-03T00:16:58.161Z,967.4900
2023-01-03T00:17:09.420Z,967.4900
2023-01-03T00:17:20.559Z,967.4700
2023-01-03T00:17:31.631Z,967.4700
2023-01-03T00:17:42.808Z,967.4900
2023-01-03T00:17:53.880Z,967.4900
2023-01-03T00:18:04.960Z,967.4900
2023-01-03T00:18:16.079Z,967.4900
2023-01-03T00:18:27.284Z,967.5100
2023-01-03T00:18:38.479Z,967.4900
2023-01-03T00:18:49.685Z,967.4900
2023-01-03T00:19:00.882Z,967.5100
2023-01-03T00:19:12.085Z,967.5100
2023-01-03T00:19:23.282Z,967.5100
2023-01-03T00:19:34.485Z,967.5100
2023-01-03T00:19:45.686Z,967.5100
2023-01-03T00:19:56.878Z,967.5100
2023-01-03T00:20:08.079Z,967.5100
2023-01-03T00:20:19.316Z,967.5100
2023-01-03T00:20:30.391Z,967.5100
2023-01-03T00:20:41.474Z,967.5100
2023-01-03T00:20:52.556Z,967.5100
2023-01-03T00:21:03.765Z,967.5100
2023-01-03T00:21:14.953Z,967.5100
2023-01-03T00:21:26.167Z,967.5300
2023-01-03T00:21:37.360Z,967.5100
2023-01-03T00:21:48.572Z,967.5300
2023-01-03T00:21:59.801Z,967.5300
2023-01-03T00:22:10.961Z,967.5300
2023-01-03T00:22:22.165Z,967.5300
2023-01-03T00:22:33.362Z,967.5300
2023-01-03T00:22:44.559Z,967.5500
2023-01-03T00:22:55.774Z,967.5300
2023-01-03T00:23:06.837Z,967.5300
2023-01-03T00:23:17.890Z,967.5100
2023-01-03T00:23:29.041Z,967.5100
2023-01-03T00:23:40.085Z,967.5300
2023-01-03T00:23:51.208Z,967.5300
2023-01-03T00:24:02.324Z,967.5300
2023-01-03T00:24:13.427Z,967.5300
2023-01-03T00:24:24.513Z,967.5300
2023-01-03T00:24:35.605Z,967.5300
2023-01-03T00:24:46.660Z,967.5500
2023-01-03T00:24:57.744Z,967.5300
2023-01-03T00:25:08.956Z,967.5300
2023-01-03T00:25:20.074Z,967.5100
2023-01-03T00:25:31.290Z,967.5100
2023-01-03T00:25:42.474Z,967.5100
2023-01-03T00:25:53.683Z,967.5100
2023-01-03T00:26:04.879Z,967.5100
2023-01-03T00:26:15.924Z,967.5300
2023-01-03T00:26:26.970Z,967.5100
2023-01-03T00:26:38.163Z,967.5300
2023-01-03T00:26:49.363Z,967.5500
2023-01-03T00:27:00.598Z,967.5300
2023-01-03T00:27:11.759Z,967.5300
2023-01-03T00:27:22.963Z,967.5300
2023-01-03T00:27:34.039Z,967.5300
2023-01-03T00:27:45.109Z,967.5300
2023-01-03T00:27:56.164Z,967.5300
2023-01-03T00:28:07.234Z,967.5300
2023-01-03T00:28:18.321Z,967.5300
2023-01-03T00:28:29.363Z,967.5500
2023-01-03T00:28:40.458Z,967.5500
2023-01-03T00:28:51.603Z,967.5500
2023-01-03T00:29:02.663Z,967.5500
2023-01-03T00:29:13.705Z,967.5700
2023-01-03T00:29:24.882Z,967.5500
2023-01-03T00:29:36.084Z,967.5500
2023-01-03T00:29:47.292Z,967.5500
2023-01-03T00:29:58.494Z,967.5500
2023-01-03T00:30:09.682Z,967.5500
2023-01-03T00:30:20.883Z,967.5500
2023-01-03T00:30:32.141Z,967.5500
2023-01-03T00:30:43.374Z,967.5300
2023-01-03T00:30:54.512Z,967.5300
2023-01-03T00:31:05.717Z,967.5300
2023-01-03T00:31:16.938Z,967.5300
2023-01-03T00:31:28.220Z,967.5300
2023-01-03T00:31:39.337Z,967.5300
2023-01-03T00:31:50.482Z,967.5300
2023-01-03T00:32:01.719Z,967.5100
2023-01-03T00:32:12.893Z,967.5300
2023-01-03T00:32:24.083Z,967.4900
2023-01-03T00:32:35.146Z,967.4900
2023-01-03T00:32:46.205Z,967.5100
2023-01-03T00:32:57.371Z,967.5100
2023-01-03T00:33:08.444Z,967.5100
2023-01-03T00:33:19.507Z,967.4900
2023-01-03T00:33:30.644Z,967.4900
2023-01-03T00:33:41.706Z,967.4900
2023-01-03T00:33:52.803Z,967.4700
2023-01-03T00:34:04.029Z,967.4700
2023-01-03T00:34:15.096Z,967.4700
2023-01-03T00:34:26.151Z,967.4900
2023-01-03T00:34:37.225Z,967.4700
2023-01-03T00:34:48.295Z,967.5100
2023-01-03T00:35:04.724Z,967.4700
2023-01-03T00:35:16.326Z,967.4900
2023-01-03T00:35:27.524Z,967.4700
2023-01-03T00:35:38.585Z,967.4700
2023-01-03T00:35:49.681Z,967.4500
2023-01-03T00:36:00.739Z,967.4500
2023-01-03T00:36:11.793Z,967.4500
2023-01-03T00:36:22.843Z,967.4300
2023-01-03T00:36:33.892Z,967.4500
2023-01-03T00:36:44.964Z,967.4500
2023-01-03T00:36:56.024Z,967.4500
2023-01-03T00:37:07.112Z,967.4500
2023-01-03T00:37:18.243Z,967.4700
2023-01-03T00:37:29.443Z,967.4500
2023-01-03T00:37:40.659Z,967.4500
2023-01-03T00:37:51.847Z,967.4500
2023-01-03T00:38:03.043Z,967.4500
2023-01-03T00:38:14.127Z,967.4500
2023-01-03T00:38:25.196Z,967.4500
2023-01-03T00:38:36.286Z,967.4500
2023-01-03T00:38:47.349Z,967.4500
2023-01-03T00:38:58.408Z,967.4300
2023-01-03T00:39:09.597Z,967.4300
2023-01-03T00:39:20.671Z,967.4500
2023-01-03T00:39:31.754Z,967.4500
2023-01-03T00:39:42.816Z,967.4500
2023-01-03T00:39:53.879Z,967.4300
2023-01-03T00:40:04.961Z,967.4300
2023-01-03T00:40:16.165Z,967.4300
2023-01-03T00:40:27.361Z,967.4500
2023-01-03T00:40:38.557Z,967.4300
2023-01-03T00:40:49.766Z,967.4300
2023-01-03T00:41:00.838Z,967.4300
2023-01-03T00:41:11.915Z,967.4500
2023-01-03T00:41:23.046Z,967.4300
2023-01-03T00:41:34.090Z,967.4300
2023-01-03T00:41:45.217Z,967.4300
2023-01-03T00:41:56.329Z,967.4500
2023-01-03T00:42:07.586Z,967.4500
2023-01-03T00:42:18.727Z,967.4100
2023-01-03T00:42:29.789Z,967.4100
2023-01-03T00:42:40.857Z,967.4100
2023-01-03T00:42:52.003Z,967.4100
2023-01-03T00:43:03.074Z,967.4100
2023-01-03T00:43:14.162Z,967.3900
2023-01-03T00:43:25.212Z,967.3900
2023-01-03T00:43:36.319Z,967.4100
2023-01-03T00:43:47.337Z,967.4100
2023-01-03T00:43:58.563Z,967.4100
2023-01-03T00:44:09.769Z,967.4100
2023-01-03T00:44:20.962Z,967.4100
2023-01-03T00:44:32.005Z,967.3900
2023-01-03T00:44:43.063Z,967.3900
2023-01-03T00:44:54.126Z,967.3500
2023-01-03T00:45:05.193Z,967.3900
2023-01-03T00:45:19.719Z,967.3900
2023-01-03T00:45:35.295Z,967.3700
2023-01-03T00:45:47.176Z,967.3700
2023-01-03T00:45:58.283Z,967.3700
2023-01-03T00:46:09.499Z,967.3500
2023-01-03T00:46:20.794Z,967.3500
2023-01-03T00:46:31.982Z,967.3700
2023-01-03T00:46:43.034Z,967.3500
2023-01-03T00:46:54.256Z,967.3700
2023-01-03T00:47:05.448Z,967.3500
2023-01-03T00:47:16.533Z,967.3500
2023-01-03T00:47:27.595Z,967.3500
2023-01-03T00:47:38.753Z,967.3500
2023-01-03T00:47:49.784Z,967.3300
2023-01-03T00:48:00.852Z,967.3500
2023-01-03T00:48:11.923Z,967.3500
2023-01-03T00:48:23.147Z,967.3300
2023-01-03T00:48:34.259Z,967.3300
2023-01-03T00:48:45.289Z,967.3500
2023-01-03T00:48:56.483Z,967.3500
2023-01-03T00:49:07.576Z,967.3500
2023-01-03T00:49:18.619Z,967.3500
2023-01-03T00:49:29.769Z,967.3500
2023-01-03T00:49:40.837Z,967.3500
2023-01-03T00:49:51.918Z,967.3500
2023-01-03T00:50:03.045Z,967.3500
2023-01-03T00:50:14.247Z,967.3300
2023-01-03T00:50:25.459Z,967.3500
2023-01-03T00:50:36.645Z,967.3500
2023-01-03T00:50:47.844Z,967.3500
2023-01-03T00:50:59.066Z,967.3500
2023-01-03T00:51:10.123Z,967.3500
2023-01-03T00:51:21.204Z,967.3500
2023-01-03T00:51:32.330Z,967.3700
2023-01-03T00:51:43.406Z,967.3500
2023-01-03T00:51:54.537Z,967.3500
2023-01-03T00:52:05.625Z,967.3700
2023-01-03T00:52:16.840Z,967.3700
2023-01-03T00:52:28.006Z,967.3700
2023-01-03T00:52:39.206Z,967.3700
2023-01-03T00:52:50.407Z,967.3500
2023-01-03T00:53:01.610Z,967.3500
2023-01-03T00:53:12.686Z,967.3500
2023-01-03T00:53:23.792Z,967.3500
2023-01-03T00:53:34.887Z,967.3500
2023-01-03T00:53:46.091Z,967.3500
2023-01-03T00:53:57.289Z,967.3500
2023-01-03T00:54:08.481Z,967.3300
2023-01-03T00:54:19.693Z,967.3300
2023-01-03T00:54:30.883Z,967.3300
2023-01-03T00:54:42.085Z,967.3300
2023-01-03T00:54:53.146Z,967.3300
2023-01-03T00:55:04.221Z,967.3300
2023-01-03T00:55:15.367Z,967.3500
2023-01-03T00:55:26.453Z,967.3500
2023-01-03T00:55:37.485Z,967.3500
2023-01-03T00:55:48.605Z,967.3300
2023-01-03T00:55:59.787Z,967.3300
2023-01-03T00:56:10.991Z,967.3300
2023-01-03T00:56:22.057Z,967.3500
2023-01-03T00:56:33.127Z,967.3300
2023-01-03T00:56:44.266Z,967.3100
2023-01-03T00:56:55.480Z,967.3300
2023-01-03T00:57:06.537Z,967.3300
2023-01-03T00:57:17.644Z,967.3300
2023-01-03T00:57:28.747Z,967.3300
2023-01-03T00:57:39.795Z,967.3500
2023-01-03T00:57:50.857Z,967.3500
2023-01-03T00:58:02.029Z,967.3700
2023-01-03T00:58:13.095Z,967.3700
2023-01-03T00:58:24.172Z,967.3500
2023-01-03T00:58:35.308Z,967.3500
2023-01-03T00:58:46.380Z,967.3500
2023-01-03T00:58:57.464Z,967.3500
2023-01-03T00:59:08.607Z,967.3700
2023-01-03T00:59:19.678Z,967.3700
2023-01-03T00:59:30.753Z,967.3900
2023-01-03T00:59:41.827Z,967.3700
2023-01-03T00:59:53.070Z,967.3900
2023-01-03T01:00:04.261Z,967.3700
2023-01-03T01:00:15.525Z,967.3900
2023-01-03T01:00:26.667Z,967.3900
2023-01-03T01:00:37.871Z,967.3700
2023-01-03T01:00:49.070Z,967.3900
2023-01-03T01:01:00.182Z,967.3900
2023-01-03T01:01:11.406Z,967.3700
2023-01-03T01:01:22.808Z,967.3700
2023-01-03T01:01:42.177Z,967.3700
2023-01-03T01:01:50.961Z,967.3900
2023-01-03T01:02:02.185Z,967.3900
2023-01-03T01:02:13.583Z,967.3900
2023-01-03T01:02:24.954Z,967.3700
2023-01-03T01:02:36.622Z,967.3900
2023-01-03T01:02:48.151Z,967.4100
2023-01-03T01:02:59.602Z,967.4100
2023-01-03T01:03:11.092Z,967.4100
2023-01-03T01:03:22.711Z,967.3900
2023-01-03T01:03:33.968Z,967.4100
2023-01-03T01:03:45.114Z,967.3900
2023-01-03T01:03:56.398Z,967.3900
2023-01-03T01:04:07.521Z,967.3900
2023-01-03T01:04:18.671Z,967.3900
2023-01-03T01:04:29.919Z,967.3700
2023-01-03T01:04:40.952Z,967.3900
2023-01-03T01:04:52.013Z,967.3900
2023-01-03T01:05:03.152Z,967.3700
2023-01-03T01:05:14.339Z,967.3900
2023-01-03T01:05:25.549Z,967.3900
2023-01-03T01:05:36.617Z,967.3700
2023-01-03T01:05:47.677Z,967.3900
2023-01-03T01:05:58.836Z,967.3500
2023-01-03T01:06:10.032Z,967.3700
2023-01-03T01:06:21.104Z,967.3500
2023-01-03T01:06:32.164Z,967.3500
2023-01-03T01:06:43.327Z,967.3500
2023-01-03T01:06:54.401Z,967.3500
2023-01-03T01:07:05.475Z,967.3500
2023-01-03T01:07:16.526Z,967.3500
2023-01-03T01:07:27.836Z,967.3500
2023-01-03T01:07:38.995Z,967.3500
2023-01-03T01:07:50.189Z,967.3300
2023-01-03T01:08:01.266Z,967.3100
2023-01-03T01:08:12.331Z,967.3300
2023-01-03T01:08:23.402Z,967.3300
2023-01-03T01:08:34.599Z,967.3500
2023-01-03T01:08:45.820Z,967.3300
2023-01-03T01:08:57.005Z,967.3300
2023-01-03T01:09:08.201Z,967.3500
2023-01-03T01:09:19.337Z,967.3700
2023-01-03T01:09:30.423Z,967.3900
2023-01-03T01:09:41.481Z,967.3900
2023-01-03T01:09:52.683Z,967.3900
2023-01-03T01:10:03.745Z,967.3700
2023-01-03T01:10:14.839Z,967.3700
2023-01-03T01:10:25.962Z,967.4100
2023-01-03T01:10:37.146Z,967.4100
2023-01-03T01:10:48.367Z,967.4100
2023-01-03T01:10:59.563Z,967.4300
2023-01-03T01:11:10.636Z,967.4300
2023-01-03T01:11:21.707Z,967.4300
2023-01-03T01:11:32.842Z,967.4300
2023-01-03T01:11:44.050Z,967.4100
2023-01-03T01:11:55.232Z,967.4300
2023-01-03T01:12:06.271Z,967.4300
2023-01-03T01:12:17.342Z,967.4300
2023-01-03T01:12:28.632Z,967.4300
2023-01-03T01:12:39.707Z,967.4300
2023-01-03T01:12:50.905Z,967.4300
2023-01-03T01:13:02.124Z,967.4300
2023-01-03T01:13:13.316Z,967.4300
2023-01-03T01:13:24.393Z,967.4300
2023-01-03T01:13:35.473Z,967.4300
2023-01-03T01:13:46.603Z,967.4300
2023-01-03T01:13:57.810Z,967.4300
2023-01-03T01:14:08.865Z,967.4100
2023-01-03T01:14:20.138Z,967.3900
2023-01-03T01:14:31.436Z,967.3900
2023-01-03T01:14:42.597Z,967.3900
2023-01-03T01:14:53.792Z,967.3700
2023-01-03T01:15:05.010Z,967.3700
2023-01-03T01:15:16.185Z,967.3500
2023-01-03T01:15:27.268Z,967.3500
2023-01-03T01:15:38.375Z,967.3300
2023-01-03T01:15:49.531Z,967.3300
2023-01-03T01:16:00.719Z,967.3300
2023-01-03T01:16:11.844Z,967.3300
2023-01-03T01:16:23.192Z,967.3100
2023-01-03T01:16:34.245Z,967.3100
2023-01-03T01:16:45.471Z,967.3100
2023-01-03T01:16:56.679Z,967.3100
2023-01-03T01:17:07.945Z,967.3100
2023-01-03T01:17:22.611Z,967.3100
2023-01-03T01:17:34.175Z,967.3100
2023-01-03T01:17:45.320Z,967.3100
2023-01-03T01:17:56.530Z,967.3100
2023-01-03T01:18:07.566Z,967.3100
2023-01-03T01:18:18.640Z,967.3100
2023-01-03T01:18:29.724Z,967.3100
2023-01-03T01:18:40.791Z,967.3300
2023-01-03T01:18:51.879Z,967.3100
2023-01-03T01:19:02.953Z,967.3100
2023-01-03T01:19:14.049Z,967.3300
2023-01-03T01:19:25.153Z,967.3100
2023-01-03T01:19:36.359Z,967.3100
2023-01-03T01:19:47.424Z,967.3300
2023-01-03T01:19:58.501Z,967.3300
2023-01-03T01:20:09.566Z,967.3300
2023-01-03T01:20:20.635Z,967.3300
2023-01-03T01:20:31.673Z,967.3500
2023-01-03T01:20:42.740Z,967.3500
2023-01-03T01:20:53.807Z,967.3500
2023-01-03T01:21:04.994Z,967.3500
2023-01-03T01:21:16.071Z,967.3700
2023-01-03T01:21:27.132Z,967.3500
2023-01-03T01:21:38.275Z,967.3500
2023-01-03T01:21:49.341Z,967.3500
2023-01-03T01:22:00.416Z,967.3700
2023-01-03T01:22:11.554Z,967.3300
2023-01-03T01:22:22.628Z,967.3300
2023-01-03T01:22:33.685Z,967.3500
2023-01-03T01:22:44.855Z,967.3300
2023-01-03T01:22:56.033Z,967.3300
2023-01-03T01:23:07.236Z,967.3500
2023-01-03T01:23:18.438Z,967.3500
2023-01-03T01:23:29.511Z,967.3500
2023-01-03T01:23:40.571Z,967.3300
2023-01-03T01:23:51.643Z,967.3300
2023-01-03T01:24:02.701Z,967.3300
2023-01-03T01:24:17.788Z,967.3100
2023-01-03T01:24:29.515Z,967.3100
2023-01-03T01:24:40.668Z,967.3100
2023-01-03T01:24:51.778Z,967.3100
2023-01-03T01:25:02.866Z,967.3100
2023-01-03T01:25:13.954Z,967.3300
2023-01-03T01:25:25.052Z,967.3300
2023-01-03T01:25:36.111Z,967.3100
2023-01-03T01:25:47.147Z,967.3100
2023-01-03T01:25:58.216Z,967.3100
2023-01-03T01:26:09.327Z,967.3100
2023-01-03T01:26:20.532Z,967.2900
2023-01-03T01:26:31.712Z,967.3100
2023-01-03T01:26:42.913Z,967.3100
2023-01-03T01:26:54.119Z,967.2700
2023-01-03T01:27:05.314Z,967.2900
2023-01-03T01:27:16.515Z,967.2700
2023-01-03T01:27:27.717Z,967.2900
2023-01-03T01:27:38.917Z,967.2700
2023-01-03T01:27:50.144Z,967.2900
2023-01-03T01:28:01.314Z,967.2700
2023-01-03T01:28:12.362Z,967.2700
2023-01-03T01:28:23.448Z,967.2700
2023-01-03T01:28:34.599Z,967.2700
2023-01-03T01:28:45.794Z,967.2500
2023-01-03T01:28:56.995Z,967.2500
2023-01-03T01:29:08.192Z,967.2500
2023-01-03T01:29:19.394Z,967.2300
2023-01-03T01:29:30.606Z,967.2300
2023-01-03T01:29:41.791Z,967.2500
2023-01-03T01:29:52.990Z,967.2500
2023-01-03T01:30:04.197Z,967.2300
2023-01-03T01:30:15.391Z,967.2100
2023-01-03T01:30:26.598Z,967.2300
2023-01-03T01:30:37.665Z,967.2300
2023-01-03T01:30:48.789Z,967.2300
2023-01-03T01:30:59.977Z,967.2500
2023-01-03T01:31:11.131Z,967.2500
2023-01-03T01:31:22.250Z,967.2500
2023-01-03T01:31:33.474Z,967.2500
2023-01-03T01:31:44.575Z,967.2500
2023-01-03T01:31:55.787Z,967.2500
2023-01-03T01:32:06.855Z,967.2300
2023-01-03T01:32:17.926Z,967.2500
2023-01-03T01:32:28.987Z,967.2500
2023-01-03T01:32:40.068Z,967.2700
2023-01-03T01:32:51.188Z,967.2700
2023-01-03T01:33:02.374Z,967.2700
2023-01-03T01:33:13.434Z,967.2900
2023-01-03T01:33:24.518Z,967.2900
2023-01-03T01:33:35.643Z,967.2900
2023-01-03T01:33:46.677Z,967.2900
2023-01-03T01:33:57.768Z,967.2900
2023-01-03T01:34:08.928Z,967.2700
2023-01-03T01:34:19.998Z,967.2700
2023-01-03T01:34:31.056Z,967.2900
2023-01-03T01:34:42.186Z,967.2900
2023-01-03T01:34:53.371Z,967.2700
2023-01-03T01:35:04.436Z,967.2700
2023-01-03T01:35:15.506Z,967.2900
2023-01-03T01:35:26.570Z,967.2700
2023-01-03T01:35:37.636Z,967.2700
2023-01-03T01:35:48.750Z,967.2700
2023-01-03T01:35:59.831Z,967.2900
2023-01-03T01:36:10.880Z,967.2700
2023-01-03T01:36:21.997Z,967.2900
2023-01-03T01:36:33.058Z,967.2900
2023-01-03T01:36:44.250Z,967.2900
2023-01-03T01:36:55.440Z,967.3100
2023-01-03T01:37:06.660Z,967.2900
2023-01-03T01:37:17.834Z,967.2900
2023-01-03T01:37:29.041Z,967.2900
2023-01-03T01:37:40.240Z,967.3100
2023-01-03T01:37:51.481Z,967.3100
2023-01-03T01:38:02.550Z,967.3100
2023-01-03T01:38:13.636Z,967.2900
2023-01-03T01:38:24.693Z,967.3100
2023-01-03T01:38:35.749Z,967.3100
2023-01-03T01:38:46.807Z,967.3100
2023-01-03T01:38:58.028Z,967.3100
2023-01-03T01:39:09.084Z,967.3100
2023-01-03T01:39:20.229Z,967.3300
2023-01-03T01:39:31.283Z,967.3300
2023-01-03T01:39:42.496Z,967.3300
2023-01-03T01:39:53.681Z,967.3300
2023-01-03T01:40:04.749Z,967.3500
2023-01-03T01:40:15.842Z,967.3500
2023-01-03T01:40:26.973Z,967.3500
2023-01-03T01:40:38.043Z,967.3500
2023-01-03T01:40:49.094Z,967.3500
2023-01-03T01:41:00.173Z,967.3500
2023-01-03T01:41:11.255Z,967.3500
2023-01-03T01:41:22.344Z,967.3700
2023-01-03T01:41:33.534Z,967.3700
2023-01-03T01:41:44.601Z,967.3500
2023-01-03T01:41:55.694Z,967.3700
2023-01-03T01:42:06.799Z,967.3700
2023-01-03T01:42:20.387Z,967.3700
2023-01-03T01:42:32.440Z,967.4100
2023-01-03T01:42:43.624Z,967.3900
2023-01-03T01:42:54.713Z,967.4100
2023-01-03T01:43:05.787Z,967.3900
2023-01-03T01:43:16.874Z,967.3900
2023-01-03T01:43:27.941Z,967.3900
2023-01-03T01:43:39.026Z,967.3900
2023-01-03T01:43:50.174Z,967.3900
2023-01-03T01:44:01.240Z,967.3700
2023-01-03T01:44:12.310Z,967.3900
2023-01-03T01:44:23.439Z,967.3900
2023-01-03T01:44:34.661Z,967.3900
2023-01-03T01:44:45.863Z,967.3700
2023-01-03T01:44:57.066Z,967.3900
2023-01-03T01:45:08.119Z,967.3700
2023-01-03T01:45:19.173Z,967.3900
2023-01-03T01:45:30.320Z,967.3900
2023-01-03T01:45:41.542Z,967.3900
2023-01-03T01:45:52.757Z,967.4100
2023-01-03T01:46:03.974Z,967.3700
2023-01-03T01:46:15.062Z,967.3700
2023-01-03T01:46:26.220Z,967.3700
2023-01-03T01:46:37.310Z,967.3500
2023-01-03T01:46:48.520Z,967.3700
2023-01-03T01:46:59.599Z,967.3700
2023-01-03T01:47:10.814Z,967.3900
2023-01-03T01:47:22.015Z,967.3900
2023-01-03T01:47:33.255Z,967.3900
2023-01-03T01:47:44.412Z,967.3900
2023-01-03T01:47:55.493Z,967.3900
2023-01-03T01:48:06.596Z,967.3900
2023-01-03T01:48:17.681Z,967.3900
2023-01-03T01:48:28.745Z,967.3700
2023-01-03T01:48:39.814Z,967.3900
2023-01-03T01:48:50.960Z,967.4100
2023-01-03T01:49:02.000Z,967.4300
2023-01-03T01:49:13.075Z,967.4100
2023-01-03T01:49:24.253Z,967.4100
2023-01-03T01:49:35.321Z,967.4300
2023-01-03T01:49:46.395Z,967.4300
2023-01-03T01:49:57.520Z,967.4300
2023-01-03T01:50:08.720Z,967.4300
2023-01-03T01:50:19.919Z,967.4300
2023-01-03T01:50:31.140Z,967.4300
2023-01-03T01:50:42.216Z,967.4500
2023-01-03T01:50:53.299Z,967.4500
2023-01-03T01:51:04.365Z,967.4500
2023-01-03T01:51:15.617Z,967.4500
2023-01-03T01:51:26.805Z,967.4500
2023-01-03T01:51:37.854Z,967.4500
2023-01-03T01:51:48.920Z,967.4500
2023-01-03T01:52:00.136Z,967.4500
2023-01-03T01:52:11.161Z,967.4500
2023-01-03T01:52:22.232Z,967.4500
2023-01-03T01:52:33.374Z,967.4500
2023-01-03T01:52:44.561Z,967.4500
2023-01-03T01:52:55.639Z,967.4500
2023-01-03T01:53:06.715Z,967.4500
2023-01-03T01:53:17.856Z,967.4500
2023-01-03T01:53:29.044Z,967.4700
2023-01-03T01:53:40.107Z,967.4700
2023-01-03T01:53:51.186Z,967.4500
2023-01-03T01:54:02.260Z,967.4500
2023-01-03T01:54:13.345Z,967.4500
2023-01-03T01:54:24.398Z,967.4700
2023-01-03T01:54:35.461Z,967.4700
2023-01-03T01:54:46.553Z,967.4700
2023-01-03T01:54:57.656Z,967.4700
2023-01-03T01:55:08.741Z,967.4700
2023-01-03T01:55:19.823Z,967.4700
2023-01-03T01:55:30.997Z,967.4700
2023-01-03T01:55:42.163Z,967.4500
2023-01-03T01:55:53.380Z,967.4700
2023-01-03T01:56:04.480Z,967.4700
2023-01-03T01:56:15.561Z,967.4700
2023-01-03T01:56:26.633Z,967.4500
2023-01-03T01:56:37.694Z,967.4700
2023-01-03T01:56:48.815Z,967.4700
2023-01-03T01:56:59.917Z,967.4700
2023-01-03T01:57:11.120Z,967.4700
2023-01-03T01:57:22.333Z,967.4700
2023-01-03T01:57:33.423Z,967.4700
2023-01-03T01:57:44.490Z,967.4500
2023-01-03T01:57:55.560Z,967.4500
2023-01-03T01:58:06.672Z,967.4700
2023-01-03T01:58:17.825Z,967.4700
2023-01-03T01:58:29.050Z,967.4700
2023-01-03T01:58:40.231Z,967.4700
2023-01-03T01:58:51.268Z,967.4500
2023-01-03T01:59:02.323Z,967.4700
2023-01-03T01:59:13.509Z,967.4700
2023-01-03T01:59:24.582Z,967.4700
2023-01-03T01:59:35.655Z,967.4300
2023-01-03T01:59:46.786Z,967.4100
2023-01-03T01:59:57.836Z,967.4700
2023-01-03T02:00:08.907Z,967.4700
2023-01-03T02:00:19.976Z,967.4700
2023-01-03T02:00:31.048Z,967.4700
2023-01-03T02:00:42.160Z,967.4700
2023-01-03T02:00:53.345Z,967.4700
2023-01-03T02:01:04.679Z,967.4900
2023-01-03T02:01:15.903Z,967.4900
2023-01-03T02:01:27.116Z,967.4700
2023-01-03T02:01:38.605Z,967.4900
2023-01-03T02:01:49.927Z,967.4900
2023-01-03T02:02:01.374Z,967.4900
2023-01-03T02:02:12.909Z,967.4900
2023-01-03T02:02:24.229Z,967.5100
2023-01-03T02:02:35.655Z,967.4900
2023-01-03T02:02:47.099Z,967.4900
2023-01-03T02:02:58.400Z,967.4900
2023-01-03T02:03:09.883Z,967.5100
2023-01-03T02:03:21.050Z,967.4900
2023-01-03T02:03:32.266Z,967.5100
2023-01-03T02:03:43.429Z,967.4900
2023-01-03T02:03:54.518Z,967.4900
2023-01-03T02:04:05.591Z,967.4700
2023-01-03T02:04:16.665Z,967.4700
2023-01-03T02:04:27.748Z,967.4700
2023-01-03T02:04:38.948Z,967.5100
2023-01-03T02:04:50.149Z,967.4700
2023-01-03T02:05:01.263Z,967.5100
2023-01-03T02:05:12.330Z,967.4900
2023-01-03T02:05:23.445Z,967.4900
2023-01-03T02:05:34.641Z,967.5100
2023-01-03T02:05:45.824Z,967.5100
2023-01-03T02:05:57.030Z,967.4900
2023-01-03T02:06:08.093Z,967.4900
2023-01-03T02:06:19.155Z,967.4900
2023-01-03T02:06:30.310Z,967.4900
2023-01-03T02:06:41.508Z,967.5100
2023-01-03T02:06:52.711Z,967.4900
2023-01-03T02:07:03.919Z,967.4900
2023-01-03T02:07:14.971Z,967.4700
2023-01-03T02:07:26.039Z,967.4700
2023-01-03T02:07:37.185Z,967.4700
2023-01-03T02:07:48.395Z,967.4900
2023-01-03T02:07:59.450Z,967.4700
2023-01-03T02:08:10.570Z,967.4900
2023-01-03T02:08:21.628Z,967.4900
2023-01-03T02:08:32.711Z,967.4900
2023-01-03T02:08:43.909Z,967.5100
2023-01-03T02:08:55.119Z,967.4700
2023-01-03T02:09:06.311Z,967.4900
2023-01-03T02:09:17.510Z,967.4900
2023-01-03T02:09:28.576Z,967.4900
2023-01-03T02:09:39.654Z,967.4900
2023-01-03T02:09:50.791Z,967.4900
2023-01-03T02:10:01.993Z,967.4700
2023-01-03T02:10:13.173Z,967.4900
2023-01-03T02:10:24.389Z,967.4900
2023-01-03T02:10:35.468Z,967.4700
2023-01-03T02:10:46.517Z,967.4500
2023-01-03T02:10:57.676Z,967.4700
2023-01-03T02:11:08.744Z,967.4500
2023-01-03T02:11:19.822Z,967.4500
2023-01-03T02:11:30.953Z,967.4700